Andersonville, Virginia
Current Conditions -  °F | °C
As of 3:55 AM on Wednesday 22 Oct 2014 (Local Time) from KFVX Reporting Station
Moderate Rain Moderate Rain  
Wind Chill: 11°   Ceiling: 6000
Heat Index: 11°   Visibility: 7mi
Dew Point: 10°   Wind: 0mph
Humidity: 94%   Direction: NA
Pressure: 29.89"   Gusts: NA
Location:  37.47°N, 78.57°W
Report Text: KFVX 220755Z AUTO 00000KT 7SM RA SCT043 OVC060 11/10 A2989 RMK AO2 P0003
Loading
Personal Weather Stations






























Interactive Weather Map
Tropical Storm Tracking
New forecast layout! Learn more

10-Day Weather Forecast

Advertisements
Track Severe Weather on mobile